sensor_id;sensor_type;location;lat;lon;timestamp;temperature;humidity
61591;DHT22;57639;52.410;-1.966;2023-07-13T00:00:02;19.10;58.50
61591;DHT22;57639;52.410;-1.966;2023-07-13T00:03:12;19.10;58.70
61591;DHT22;57639;52.410;-1.966;2023-07-13T00:06:20;19.10;58.70
61591;DHT22;57639;52.410;-1.966;2023-07-13T00:09:29;19.10;58.80
61591;DHT22;57639;52.410;-1.966;2023-07-13T00:12:37;19.10;59.10
61591;DHT22;57639;52.410;-1.966;2023-07-13T00:15:43;19.10;58.80
61591;DHT22;57639;52.410;-1.966;2023-07-13T00:18:50;19.00;58.90
61591;DHT22;57639;52.410;-1.966;2023-07-13T00:21:56;19.00;58.80
61591;DHT22;57639;52.410;-1.966;2023-07-13T00:25:10;19.00;58.90
61591;DHT22;57639;52.410;-1.966;2023-07-13T00:28:16;19.10;59.00
61591;DHT22;57639;52.410;-1.966;2023-07-13T00:31:23;19.00;59.10
61591;DHT22;57639;52.410;-1.966;2023-07-13T00:34:29;19.00;58.90
61591;DHT22;57639;52.410;-1.966;2023-07-13T00:37:39;19.10;58.90
61591;DHT22;57639;52.410;-1.966;2023-07-13T00:40:48;19.00;58.90
61591;DHT22;57639;52.410;-1.966;2023-07-13T00:43:55;19.00;58.90
61591;DHT22;57639;52.410;-1.966;2023-07-13T00:47:01;19.00;58.90
61591;DHT22;57639;52.410;-1.966;2023-07-13T00:50:13;19.00;59.10
61591;DHT22;57639;52.410;-1.966;2023-07-13T00:53:20;19.00;59.00
61591;DHT22;57639;52.410;-1.966;2023-07-13T00:56:31;19.00;59.10
61591;DHT22;57639;52.410;-1.966;2023-07-13T00:59:40;19.00;59.10
61591;DHT22;57639;52.410;-1.966;2023-07-13T01:02:48;19.00;59.00
61591;DHT22;57639;52.410;-1.966;2023-07-13T01:05:55;19.00;59.00
61591;DHT22;57639;52.410;-1.966;2023-07-13T01:09:02;19.00;59.00
61591;DHT22;57639;52.410;-1.966;2023-07-13T01:12:12;19.00;59.10
61591;DHT22;57639;52.410;-1.966;2023-07-13T01:15:36;19.00;59.00
61591;DHT22;57639;52.410;-1.966;2023-07-13T01:18:43;18.90;59.10
61591;DHT22;57639;52.410;-1.966;2023-07-13T01:21:53;18.90;59.20
61591;DHT22;57639;52.410;-1.966;2023-07-13T01:24:59;18.90;59.00
61591;DHT22;57639;52.410;-1.966;2023-07-13T01:28:07;18.90;59.20
61591;DHT22;57639;52.410;-1.966;2023-07-13T01:31:14;18.90;59.20
61591;DHT22;57639;52.410;-1.966;2023-07-13T01:34:20;18.90;59.10
61591;DHT22;57639;52.410;-1.966;2023-07-13T01:37:30;19.00;59.00
61591;DHT22;57639;52.410;-1.966;2023-07-13T01:40:39;18.90;59.20
61591;DHT22;57639;52.410;-1.966;2023-07-13T01:43:49;18.90;59.20
61591;DHT22;57639;52.410;-1.966;2023-07-13T01:46:58;18.90;59.30
61591;DHT22;57639;52.410;-1.966;2023-07-13T01:50:05;18.90;59.30
61591;DHT22;57639;52.410;-1.966;2023-07-13T01:53:14;18.90;59.40
61591;DHT22;57639;52.410;-1.966;2023-07-13T01:56:21;18.90;59.30
61591;DHT22;57639;52.410;-1.966;2023-07-13T01:59:27;18.90;59.30
61591;DHT22;57639;52.410;-1.966;2023-07-13T02:02:34;18.90;59.20
61591;DHT22;57639;52.410;-1.966;2023-07-13T02:05:40;18.90;59.30
61591;DHT22;57639;52.410;-1.966;2023-07-13T02:08:49;18.90;59.30
61591;DHT22;57639;52.410;-1.966;2023-07-13T02:11:55;18.90;59.30
61591;DHT22;57639;52.410;-1.966;2023-07-13T02:15:02;18.90;59.40
61591;DHT22;57639;52.410;-1.966;2023-07-13T02:18:08;18.90;59.30
61591;DHT22;57639;52.410;-1.966;2023-07-13T02:21:20;18.90;59.30
61591;DHT22;57639;52.410;-1.966;2023-07-13T02:24:32;18.90;59.30
61591;DHT22;57639;52.410;-1.966;2023-07-13T02:27:38;18.80;59.40
61591;DHT22;57639;52.410;-1.966;2023-07-13T02:30:45;18.80;59.30
61591;DHT22;57639;52.410;-1.966;2023-07-13T02:33:51;18.80;59.40
61591;DHT22;57639;52.410;-1.966;2023-07-13T02:36:58;18.80;59.40
61591;DHT22;57639;52.410;-1.966;2023-07-13T02:40:09;18.80;59.30
61591;DHT22;57639;52.410;-1.966;2023-07-13T02:43:15;18.80;59.40
61591;DHT22;57639;52.410;-1.966;2023-07-13T02:46:25;18.80;59.40
61591;DHT22;57639;52.410;-1.966;2023-07-13T02:49:32;18.80;59.40
61591;DHT22;57639;52.410;-1.966;2023-07-13T02:52:41;18.80;59.50
61591;DHT22;57639;52.410;-1.966;2023-07-13T02:55:51;18.80;59.50
61591;DHT22;57639;52.410;-1.966;2023-07-13T02:59:02;18.80;59.60
61591;DHT22;57639;52.410;-1.966;2023-07-13T03:02:11;18.80;59.50
61591;DHT22;57639;52.410;-1.966;2023-07-13T03:05:20;18.80;59.50
61591;DHT22;57639;52.410;-1.966;2023-07-13T03:08:26;18.80;59.50
61591;DHT22;57639;52.410;-1.966;2023-07-13T03:11:35;18.80;59.60
61591;DHT22;57639;52.410;-1.966;2023-07-13T03:14:42;18.80;59.60
61591;DHT22;57639;52.410;-1.966;2023-07-13T03:17:48;18.70;59.50
61591;DHT22;57639;52.410;-1.966;2023-07-13T03:20:55;18.80;59.50
61591;DHT22;57639;52.410;-1.966;2023-07-13T03:24:01;18.80;59.60
61591;DHT22;57639;52.410;-1.966;2023-07-13T03:27:11;18.80;59.50
61591;DHT22;57639;52.410;-1.966;2023-07-13T03:30:23;18.80;59.50
61591;DHT22;57639;52.410;-1.966;2023-07-13T03:33:30;18.70;59.60
61591;DHT22;57639;52.410;-1.966;2023-07-13T03:36:39;18.80;59.50
61591;DHT22;57639;52.410;-1.966;2023-07-13T03:39:46;18.80;59.50
61591;DHT22;57639;52.410;-1.966;2023-07-13T03:42:57;18.70;59.40
61591;DHT22;57639;52.410;-1.966;2023-07-13T03:46:05;18.70;59.40
61591;DHT22;57639;52.410;-1.966;2023-07-13T03:49:12;18.70;59.40
61591;DHT22;57639;52.410;-1.966;2023-07-13T03:52:20;18.70;59.40
61591;DHT22;57639;52.410;-1.966;2023-07-13T03:55:27;18.70;59.40
61591;DHT22;57639;52.410;-1.966;2023-07-13T03:58:39;18.70;59.30
61591;DHT22;57639;52.410;-1.966;2023-07-13T04:01:49;18.70;59.30
61591;DHT22;57639;52.410;-1.966;2023-07-13T04:04:56;18.70;59.40
61591;DHT22;57639;52.410;-1.966;2023-07-13T04:08:05;18.70;59.50
61591;DHT22;57639;52.410;-1.966;2023-07-13T04:11:12;18.70;59.40
61591;DHT22;57639;52.410;-1.966;2023-07-13T04:14:21;18.70;59.40
61591;DHT22;57639;52.410;-1.966;2023-07-13T04:17:27;18.70;59.40
61591;DHT22;57639;52.410;-1.966;2023-07-13T04:20:37;18.70;59.40
61591;DHT22;57639;52.410;-1.966;2023-07-13T04:23:43;18.70;59.50
61591;DHT22;57639;52.410;-1.966;2023-07-13T04:26:50;18.70;59.40
61591;DHT22;57639;52.410;-1.966;2023-07-13T04:30:01;18.60;59.40
61591;DHT22;57639;52.410;-1.966;2023-07-13T04:33:10;18.60;59.50
61591;DHT22;57639;52.410;-1.966;2023-07-13T04:36:22;18.60;59.50
61591;DHT22;57639;52.410;-1.966;2023-07-13T04:39:30;18.70;59.50
61591;DHT22;57639;52.410;-1.966;2023-07-13T04:42:39;18.70;59.40
61591;DHT22;57639;52.410;-1.966;2023-07-13T04:45:51;18.70;59.50
61591;DHT22;57639;52.410;-1.966;2023-07-13T04:48:57;18.70;59.60
61591;DHT22;57639;52.410;-1.966;2023-07-13T04:52:04;18.70;59.50
61591;DHT22;57639;52.410;-1.966;2023-07-13T04:55:11;18.70;59.60
61591;DHT22;57639;52.410;-1.966;2023-07-13T04:58:17;18.60;59.60
61591;DHT22;57639;52.410;-1.966;2023-07-13T05:01:27;18.70;59.70
61591;DHT22;57639;52.410;-1.966;2023-07-13T05:04:34;18.70;59.60
61591;DHT22;57639;52.410;-1.966;2023-07-13T05:07:40;18.70;59.50
61591;DHT22;57639;52.410;-1.966;2023-07-13T05:10:46;18.70;59.50
61591;DHT22;57639;52.410;-1.966;2023-07-13T05:13:53;18.70;59.60
61591;DHT22;57639;52.410;-1.966;2023-07-13T05:17:02;18.60;59.60
61591;DHT22;57639;52.410;-1.966;2023-07-13T05:20:15;18.70;59.60
61591;DHT22;57639;52.410;-1.966;2023-07-13T05:23:21;18.70;59.50
61591;DHT22;57639;52.410;-1.966;2023-07-13T05:26:27;18.70;59.60
61591;DHT22;57639;52.410;-1.966;2023-07-13T05:29:34;18.70;59.80
61591;DHT22;57639;52.410;-1.966;2023-07-13T05:32:43;18.70;59.70
61591;DHT22;57639;52.410;-1.966;2023-07-13T05:35:49;18.60;59.70
61591;DHT22;57639;52.410;-1.966;2023-07-13T05:38:56;18.60;59.70
61591;DHT22;57639;52.410;-1.966;2023-07-13T05:42:03;18.70;59.80
61591;DHT22;57639;52.410;-1.966;2023-07-13T05:45:12;18.70;59.70
61591;DHT22;57639;52.410;-1.966;2023-07-13T05:48:21;18.70;59.80
61591;DHT22;57639;52.410;-1.966;2023-07-13T05:51:27;18.70;59.80
61591;DHT22;57639;52.410;-1.966;2023-07-13T05:54:33;18.70;59.80
61591;DHT22;57639;52.410;-1.966;2023-07-13T05:57:40;18.60;59.80
61591;DHT22;57639;52.410;-1.966;2023-07-13T06:00:57;18.70;59.80
61591;DHT22;57639;52.410;-1.966;2023-07-13T06:04:07;18.70;59.80
61591;DHT22;57639;52.410;-1.966;2023-07-13T06:07:14;18.70;59.80
61591;DHT22;57639;52.410;-1.966;2023-07-13T06:10:22;18.70;59.90
61591;DHT22;57639;52.410;-1.966;2023-07-13T06:13:29;18.60;59.90
61591;DHT22;57639;52.410;-1.966;2023-07-13T06:16:40;18.60;59.90
61591;DHT22;57639;52.410;-1.966;2023-07-13T06:19:49;18.60;60.00
61591;DHT22;57639;52.410;-1.966;2023-07-13T06:22:56;18.60;60.00
61591;DHT22;57639;52.410;-1.966;2023-07-13T06:26:03;18.60;60.00
61591;DHT22;57639;52.410;-1.966;2023-07-13T06:29:09;18.70;59.90
61591;DHT22;57639;52.410;-1.966;2023-07-13T06:32:18;18.70;60.10
61591;DHT22;57639;52.410;-1.966;2023-07-13T06:35:28;18.70;60.10
61591;DHT22;57639;52.410;-1.966;2023-07-13T06:38:37;18.70;60.10
61591;DHT22;57639;52.410;-1.966;2023-07-13T06:41:53;18.70;60.70
61591;DHT22;57639;52.410;-1.966;2023-07-13T06:45:05;18.70;60.80
61591;DHT22;57639;52.410;-1.966;2023-07-13T06:48:12;18.70;60.80
61591;DHT22;57639;52.410;-1.966;2023-07-13T06:51:22;18.80;60.80
61591;DHT22;57639;52.410;-1.966;2023-07-13T06:54:28;18.80;61.20
61591;DHT22;57639;52.410;-1.966;2023-07-13T06:57:35;18.80;61.40
61591;DHT22;57639;52.410;-1.966;2023-07-13T07:00:44;18.80;61.50
61591;DHT22;57639;52.410;-1.966;2023-07-13T07:03:51;18.80;61.60
61591;DHT22;57639;52.410;-1.966;2023-07-13T07:07:02;18.90;61.70
61591;DHT22;57639;52.410;-1.966;2023-07-13T07:10:11;18.90;61.90
61591;DHT22;57639;52.410;-1.966;2023-07-13T07:13:21;18.90;61.90
61591;DHT22;57639;52.410;-1.966;2023-07-13T07:16:27;18.80;62.00
61591;DHT22;57639;52.410;-1.966;2023-07-13T07:19:37;18.80;62.10
61591;DHT22;57639;52.410;-1.966;2023-07-13T07:22:48;18.90;61.90
61591;DHT22;57639;52.410;-1.966;2023-07-13T07:25:58;18.90;61.90
61591;DHT22;57639;52.410;-1.966;2023-07-13T07:29:06;18.90;61.80
61591;DHT22;57639;52.410;-1.966;2023-07-13T07:32:14;18.90;61.90
61591;DHT22;57639;52.410;-1.966;2023-07-13T07:35:23;18.90;61.90
61591;DHT22;57639;52.410;-1.966;2023-07-13T07:38:33;18.90;61.90
61591;DHT22;57639;52.410;-1.966;2023-07-13T07:41:46;18.90;61.80
61591;DHT22;57639;52.410;-1.966;2023-07-13T07:44:53;18.90;61.80
61591;DHT22;57639;52.410;-1.966;2023-07-13T07:47:59;19.00;61.70
61591;DHT22;57639;52.410;-1.966;2023-07-13T07:51:06;19.00;61.70
61591;DHT22;57639;52.410;-1.966;2023-07-13T07:54:21;19.00;61.70
61591;DHT22;57639;52.410;-1.966;2023-07-13T07:57:31;18.90;61.70
61591;DHT22;57639;52.410;-1.966;2023-07-13T08:00:38;19.00;61.80
61591;DHT22;57639;52.410;-1.966;2023-07-13T08:03:47;18.90;61.80
61591;DHT22;57639;52.410;-1.966;2023-07-13T08:06:57;18.90;61.80
61591;DHT22;57639;52.410;-1.966;2023-07-13T08:10:12;19.00;61.80
61591;DHT22;57639;52.410;-1.966;2023-07-13T08:13:21;19.00;61.70
61591;DHT22;57639;52.410;-1.966;2023-07-13T08:16:27;19.00;61.70
61591;DHT22;57639;52.410;-1.966;2023-07-13T08:19:38;19.00;61.60
61591;DHT22;57639;52.410;-1.966;2023-07-13T08:22:46;19.00;61.60
61591;DHT22;57639;52.410;-1.966;2023-07-13T08:25:55;19.00;61.50
61591;DHT22;57639;52.410;-1.966;2023-07-13T08:29:04;19.00;61.50
61591;DHT22;57639;52.410;-1.966;2023-07-13T08:32:10;19.00;61.50
61591;DHT22;57639;52.410;-1.966;2023-07-13T08:35:17;19.00;61.40
61591;DHT22;57639;52.410;-1.966;2023-07-13T08:38:28;19.00;61.40
61591;DHT22;57639;52.410;-1.966;2023-07-13T08:41:39;19.00;61.40
61591;DHT22;57639;52.410;-1.966;2023-07-13T08:44:55;19.00;61.30
61591;DHT22;57639;52.410;-1.966;2023-07-13T08:48:10;19.00;61.30
61591;DHT22;57639;52.410;-1.966;2023-07-13T08:51:26;19.10;61.30
61591;DHT22;57639;52.410;-1.966;2023-07-13T08:54:35;19.10;61.20
61591;DHT22;57639;52.410;-1.966;2023-07-13T08:57:50;19.10;61.20
61591;DHT22;57639;52.410;-1.966;2023-07-13T09:01:03;19.10;61.20
61591;DHT22;57639;52.410;-1.966;2023-07-13T09:04:16;19.10;61.30
61591;DHT22;57639;52.410;-1.966;2023-07-13T09:07:38;19.10;61.30
61591;DHT22;57639;52.410;-1.966;2023-07-13T09:10:48;19.10;61.20
61591;DHT22;57639;52.410;-1.966;2023-07-13T09:14:06;19.10;61.20
61591;DHT22;57639;52.410;-1.966;2023-07-13T09:17:19;19.10;61.30
61591;DHT22;57639;52.410;-1.966;2023-07-13T09:20:28;19.10;61.30
61591;DHT22;57639;52.410;-1.966;2023-07-13T09:23:35;19.10;61.30
61591;DHT22;57639;52.410;-1.966;2023-07-13T09:26:44;19.10;61.50
61591;DHT22;57639;52.410;-1.966;2023-07-13T09:29:58;19.10;61.50
61591;DHT22;57639;52.410;-1.966;2023-07-13T09:33:08;19.10;61.50
61591;DHT22;57639;52.410;-1.966;2023-07-13T09:36:19;19.10;61.50
61591;DHT22;57639;52.410;-1.966;2023-07-13T09:39:29;19.20;61.50
61591;DHT22;57639;52.410;-1.966;2023-07-13T09:42:37;19.20;61.50
61591;DHT22;57639;52.410;-1.966;2023-07-13T09:45:48;19.20;61.50
61591;DHT22;57639;52.410;-1.966;2023-07-13T09:48:56;19.10;61.50
61591;DHT22;57639;52.410;-1.966;2023-07-13T09:52:04;19.10;61.60
61591;DHT22;57639;52.410;-1.966;2023-07-13T09:55:26;19.20;61.60
61591;DHT22;57639;52.410;-1.966;2023-07-13T09:58:35;19.20;61.60
61591;DHT22;57639;52.410;-1.966;2023-07-13T10:01:47;19.20;61.60
61591;DHT22;57639;52.410;-1.966;2023-07-13T10:04:57;19.20;61.70
61591;DHT22;57639;52.410;-1.966;2023-07-13T10:08:04;19.30;61.70
61591;DHT22;57639;52.410;-1.966;2023-07-13T10:11:22;19.20;61.70
61591;DHT22;57639;52.410;-1.966;2023-07-13T10:14:34;19.20;61.70
61591;DHT22;57639;52.410;-1.966;2023-07-13T10:17:45;19.20;61.80
61591;DHT22;57639;52.410;-1.966;2023-07-13T10:21:04;19.30;61.80
61591;DHT22;57639;52.410;-1.966;2023-07-13T10:24:17;19.20;61.80
61591;DHT22;57639;52.410;-1.966;2023-07-13T10:27:36;19.30;61.80
61591;DHT22;57639;52.410;-1.966;2023-07-13T10:30:46;19.30;61.80
61591;DHT22;57639;52.410;-1.966;2023-07-13T10:33:56;19.30;61.80
61591;DHT22;57639;52.410;-1.966;2023-07-13T10:37:05;19.30;61.80
61591;DHT22;57639;52.410;-1.966;2023-07-13T10:40:16;19.30;61.80
61591;DHT22;57639;52.410;-1.966;2023-07-13T10:43:27;19.30;61.80
61591;DHT22;57639;52.410;-1.966;2023-07-13T10:46:37;19.30;61.90
61591;DHT22;57639;52.410;-1.966;2023-07-13T10:49:49;19.30;61.90
61591;DHT22;57639;52.410;-1.966;2023-07-13T10:53:02;19.40;61.90
61591;DHT22;57639;52.410;-1.966;2023-07-13T10:56:22;19.30;62.00
61591;DHT22;57639;52.410;-1.966;2023-07-13T10:59:29;19.40;62.00
61591;DHT22;57639;52.410;-1.966;2023-07-13T11:02:35;19.30;62.00
61591;DHT22;57639;52.410;-1.966;2023-07-13T11:05:49;19.40;62.10
61591;DHT22;57639;52.410;-1.966;2023-07-13T11:08:57;19.40;62.10
61591;DHT22;57639;52.410;-1.966;2023-07-13T11:12:09;19.40;62.10
61591;DHT22;57639;52.410;-1.966;2023-07-13T11:15:31;19.40;62.20
61591;DHT22;57639;52.410;-1.966;2023-07-13T11:18:38;19.40;62.20
61591;DHT22;57639;52.410;-1.966;2023-07-13T11:22:10;19.40;62.30
61591;DHT22;57639;52.410;-1.966;2023-07-13T11:25:29;19.40;62.30
61591;DHT22;57639;52.410;-1.966;2023-07-13T11:28:41;19.40;62.40
61591;DHT22;57639;52.410;-1.966;2023-07-13T11:31:52;19.40;62.40
61591;DHT22;57639;52.410;-1.966;2023-07-13T11:35:13;19.40;62.40
61591;DHT22;57639;52.410;-1.966;2023-07-13T11:38:30;19.40;62.50
61591;DHT22;57639;52.410;-1.966;2023-07-13T11:41:43;19.40;62.40
61591;DHT22;57639;52.410;-1.966;2023-07-13T11:44:52;19.40;62.50
61591;DHT22;57639;52.410;-1.966;2023-07-13T11:47:59;19.40;62.40
61591;DHT22;57639;52.410;-1.966;2023-07-13T11:51:06;19.40;62.50
61591;DHT22;57639;52.410;-1.966;2023-07-13T11:54:24;19.40;62.40
61591;DHT22;57639;52.410;-1.966;2023-07-13T11:57:41;19.50;62.40
61591;DHT22;57639;52.410;-1.966;2023-07-13T12:00:50;19.40;62.40
61591;DHT22;57639;52.410;-1.966;2023-07-13T12:03:58;19.50;62.40
61591;DHT22;57639;52.410;-1.966;2023-07-13T12:07:15;19.50;62.40
61591;DHT22;57639;52.410;-1.966;2023-07-13T12:10:27;19.50;62.40
61591;DHT22;57639;52.410;-1.966;2023-07-13T12:13:38;19.50;62.50
61591;DHT22;57639;52.410;-1.966;2023-07-13T12:16:48;19.50;62.60
61591;DHT22;57639;52.410;-1.966;2023-07-13T12:19:57;19.50;62.60
61591;DHT22;57639;52.410;-1.966;2023-07-13T12:23:06;19.50;62.80
61591;DHT22;57639;52.410;-1.966;2023-07-13T12:26:20;19.50;62.80
61591;DHT22;57639;52.410;-1.966;2023-07-13T12:29:26;19.50;62.90
61591;DHT22;57639;52.410;-1.966;2023-07-13T12:32:32;19.50;62.90
61591;DHT22;57639;52.410;-1.966;2023-07-13T12:35:42;19.50;63.00
61591;DHT22;57639;52.410;-1.966;2023-07-13T12:38:52;19.50;62.80
61591;DHT22;57639;52.410;-1.966;2023-07-13T12:42:18;19.50;62.90
61591;DHT22;57639;52.410;-1.966;2023-07-13T12:45:28;19.50;62.90
61591;DHT22;57639;52.410;-1.966;2023-07-13T12:48:39;19.50;62.90
61591;DHT22;57639;52.410;-1.966;2023-07-13T12:51:56;19.50;62.90
61591;DHT22;57639;52.410;-1.966;2023-07-13T12:55:05;19.60;62.90
61591;DHT22;57639;52.410;-1.966;2023-07-13T12:58:26;19.50;62.90
61591;DHT22;57639;52.410;-1.966;2023-07-13T13:01:42;19.60;62.80
61591;DHT22;57639;52.410;-1.966;2023-07-13T13:04:49;19.60;62.70
61591;DHT22;57639;52.410;-1.966;2023-07-13T13:07:58;19.60;62.60
61591;DHT22;57639;52.410;-1.966;2023-07-13T13:11:08;19.60;62.50
61591;DHT22;57639;52.410;-1.966;2023-07-13T13:14:17;19.60;62.60
61591;DHT22;57639;52.410;-1.966;2023-07-13T13:17:29;19.60;62.60
61591;DHT22;57639;52.410;-1.966;2023-07-13T13:20:37;19.60;62.50
61591;DHT22;57639;52.410;-1.966;2023-07-13T13:23:44;19.60;62.50
61591;DHT22;57639;52.410;-1.966;2023-07-13T13:26:54;19.70;62.50
61591;DHT22;57639;52.410;-1.966;2023-07-13T13:30:14;19.60;62.50
61591;DHT22;57639;52.410;-1.966;2023-07-13T13:33:23;19.70;62.40
61591;DHT22;57639;52.410;-1.966;2023-07-13T13:36:29;19.70;62.40
61591;DHT22;57639;52.410;-1.966;2023-07-13T13:39:43;19.70;62.40
61591;DHT22;57639;52.410;-1.966;2023-07-13T13:42:53;19.70;62.40
61591;DHT22;57639;52.410;-1.966;2023-07-13T13:46:17;19.70;62.40
61591;DHT22;57639;52.410;-1.966;2023-07-13T13:49:26;19.70;62.40
61591;DHT22;57639;52.410;-1.966;2023-07-13T13:52:33;19.60;62.40
61591;DHT22;57639;52.410;-1.966;2023-07-13T13:55:40;19.60;62.40
61591;DHT22;57639;52.410;-1.966;2023-07-13T13:58:47;19.70;62.40
61591;DHT22;57639;52.410;-1.966;2023-07-13T14:01:58;19.70;62.30
61591;DHT22;57639;52.410;-1.966;2023-07-13T14:05:17;19.60;62.30
61591;DHT22;57639;52.410;-1.966;2023-07-13T14:08:28;19.70;62.30
61591;DHT22;57639;52.410;-1.966;2023-07-13T14:11:35;19.70;62.30
61591;DHT22;57639;52.410;-1.966;2023-07-13T14:14:42;19.70;62.30
61591;DHT22;57639;52.410;-1.966;2023-07-13T14:17:51;19.70;62.30
61591;DHT22;57639;52.410;-1.966;2023-07-13T14:20:57;19.70;62.30
61591;DHT22;57639;52.410;-1.966;2023-07-13T14:24:04;19.70;62.30
61591;DHT22;57639;52.410;-1.966;2023-07-13T14:27:11;19.70;62.30
61591;DHT22;57639;52.410;-1.966;2023-07-13T14:30:20;19.70;62.30
61591;DHT22;57639;52.410;-1.966;2023-07-13T14:33:29;19.80;62.20
61591;DHT22;57639;52.410;-1.966;2023-07-13T14:36:39;19.70;62.20
61591;DHT22;57639;52.410;-1.966;2023-07-13T14:39:51;19.80;62.20
61591;DHT22;57639;52.410;-1.966;2023-07-13T14:43:01;19.70;62.20
61591;DHT22;57639;52.410;-1.966;2023-07-13T14:46:09;19.80;62.10
61591;DHT22;57639;52.410;-1.966;2023-07-13T14:49:30;19.80;62.10
61591;DHT22;57639;52.410;-1.966;2023-07-13T14:52:40;19.70;62.00
61591;DHT22;57639;52.410;-1.966;2023-07-13T14:55:53;19.80;62.00
61591;DHT22;57639;52.410;-1.966;2023-07-13T14:59:08;19.80;62.00
61591;DHT22;57639;52.410;-1.966;2023-07-13T15:02:19;19.80;62.00
61591;DHT22;57639;52.410;-1.966;2023-07-13T15:05:34;19.80;62.00
61591;DHT22;57639;52.410;-1.966;2023-07-13T15:08:40;19.80;62.00
61591;DHT22;57639;52.410;-1.966;2023-07-13T15:11:49;19.80;62.00
61591;DHT22;57639;52.410;-1.966;2023-07-13T15:14:57;19.80;62.00
61591;DHT22;57639;52.410;-1.966;2023-07-13T15:18:04;19.80;61.90
61591;DHT22;57639;52.410;-1.966;2023-07-13T15:21:17;19.80;62.00
61591;DHT22;57639;52.410;-1.966;2023-07-13T15:24:27;19.80;61.90
61591;DHT22;57639;52.410;-1.966;2023-07-13T15:27:35;19.80;61.90
61591;DHT22;57639;52.410;-1.966;2023-07-13T15:30:46;19.80;62.00
61591;DHT22;57639;52.410;-1.966;2023-07-13T15:33:55;19.80;62.00
61591;DHT22;57639;52.410;-1.966;2023-07-13T15:37:14;19.80;62.00
61591;DHT22;57639;52.410;-1.966;2023-07-13T15:40:24;19.80;62.00
61591;DHT22;57639;52.410;-1.966;2023-07-13T15:43:32;19.80;61.90
61591;DHT22;57639;52.410;-1.966;2023-07-13T15:46:39;19.80;61.90
61591;DHT22;57639;52.410;-1.966;2023-07-13T15:49:54;19.80;61.90
61591;DHT22;57639;52.410;-1.966;2023-07-13T15:53:10;19.80;61.80
61591;DHT22;57639;52.410;-1.966;2023-07-13T15:56:19;19.90;61.80
61591;DHT22;57639;52.410;-1.966;2023-07-13T15:59:26;19.90;61.80
61591;DHT22;57639;52.410;-1.966;2023-07-13T16:02:32;19.90;61.70
61591;DHT22;57639;52.410;-1.966;2023-07-13T16:05:38;19.90;61.70
61591;DHT22;57639;52.410;-1.966;2023-07-13T16:08:50;19.90;61.70
61591;DHT22;57639;52.410;-1.966;2023-07-13T16:11:57;19.90;61.70
61591;DHT22;57639;52.410;-1.966;2023-07-13T16:15:19;19.90;61.70
61591;DHT22;57639;52.410;-1.966;2023-07-13T16:18:37;19.90;62.00
61591;DHT22;57639;52.410;-1.966;2023-07-13T16:21:45;19.90;62.50
61591;DHT22;57639;52.410;-1.966;2023-07-13T16:24:59;19.90;62.00
61591;DHT22;57639;52.410;-1.966;2023-07-13T16:28:12;19.90;62.10
61591;DHT22;57639;52.410;-1.966;2023-07-13T16:35:15;20.00;62.10
61591;DHT22;57639;52.410;-1.966;2023-07-13T16:38:27;19.90;62.30
61591;DHT22;57639;52.410;-1.966;2023-07-13T16:41:51;19.90;62.40
61591;DHT22;57639;52.410;-1.966;2023-07-13T16:45:18;19.90;62.40
61591;DHT22;57639;52.410;-1.966;2023-07-13T16:48:27;19.90;62.80
61591;DHT22;57639;52.410;-1.966;2023-07-13T16:51:36;19.90;63.00
61591;DHT22;57639;52.410;-1.966;2023-07-13T16:54:49;19.90;62.90
61591;DHT22;57639;52.410;-1.966;2023-07-13T16:58:01;19.90;62.90
61591;DHT22;57639;52.410;-1.966;2023-07-13T17:01:11;20.00;62.90
61591;DHT22;57639;52.410;-1.966;2023-07-13T17:04:21;20.00;62.70
61591;DHT22;57639;52.410;-1.966;2023-07-13T17:07:30;20.00;62.60
61591;DHT22;57639;52.410;-1.966;2023-07-13T17:10:37;20.00;62.60
61591;DHT22;57639;52.410;-1.966;2023-07-13T17:13:50;20.00;62.60
61591;DHT22;57639;52.410;-1.966;2023-07-13T17:17:15;20.00;62.60
61591;DHT22;57639;52.410;-1.966;2023-07-13T17:20:27;20.00;62.60
61591;DHT22;57639;52.410;-1.966;2023-07-13T17:23:34;20.00;62.60
61591;DHT22;57639;52.410;-1.966;2023-07-13T17:26:42;20.00;62.60
61591;DHT22;57639;52.410;-1.966;2023-07-13T17:29:54;20.00;62.70
61591;DHT22;57639;52.410;-1.966;2023-07-13T17:33:01;20.00;62.60
61591;DHT22;57639;52.410;-1.966;2023-07-13T17:36:13;19.90;62.60
61591;DHT22;57639;52.410;-1.966;2023-07-13T17:39:20;19.90;62.60
61591;DHT22;57639;52.410;-1.966;2023-07-13T17:42:27;20.00;62.50
61591;DHT22;57639;52.410;-1.966;2023-07-13T17:45:36;19.90;62.60
61591;DHT22;57639;52.410;-1.966;2023-07-13T17:48:44;20.00;62.50
61591;DHT22;57639;52.410;-1.966;2023-07-13T17:51:52;20.00;62.50
61591;DHT22;57639;52.410;-1.966;2023-07-13T17:55:12;19.90;62.50
61591;DHT22;57639;52.410;-1.966;2023-07-13T17:58:27;19.90;62.50
61591;DHT22;57639;52.410;-1.966;2023-07-13T18:01:38;19.90;62.60
61591;DHT22;57639;52.410;-1.966;2023-07-13T18:04:46;19.90;62.60
61591;DHT22;57639;52.410;-1.966;2023-07-13T18:07:55;19.90;62.50
61591;DHT22;57639;52.410;-1.966;2023-07-13T18:11:10;19.90;62.50
61591;DHT22;57639;52.410;-1.966;2023-07-13T18:14:26;19.90;62.50
61591;DHT22;57639;52.410;-1.966;2023-07-13T18:17:39;19.90;62.40
61591;DHT22;57639;52.410;-1.966;2023-07-13T18:20:47;19.90;62.40
61591;DHT22;57639;52.410;-1.966;2023-07-13T18:23:56;19.90;62.30
61591;DHT22;57639;52.410;-1.966;2023-07-13T18:27:03;19.90;62.40
61591;DHT22;57639;52.410;-1.966;2023-07-13T18:30:15;19.90;62.30
61591;DHT22;57639;52.410;-1.966;2023-07-13T18:33:29;19.90;62.30
61591;DHT22;57639;52.410;-1.966;2023-07-13T18:36:37;19.90;62.30
61591;DHT22;57639;52.410;-1.966;2023-07-13T18:39:44;19.90;62.20
61591;DHT22;57639;52.410;-1.966;2023-07-13T18:42:56;19.90;62.30
61591;DHT22;57639;52.410;-1.966;2023-07-13T18:46:13;19.90;62.30
61591;DHT22;57639;52.410;-1.966;2023-07-13T18:49:42;19.90;62.10
61591;DHT22;57639;52.410;-1.966;2023-07-13T18:52:51;19.90;62.20
61591;DHT22;57639;52.410;-1.966;2023-07-13T18:55:58;19.90;62.20
61591;DHT22;57639;52.410;-1.966;2023-07-13T18:59:07;19.80;62.20
61591;DHT22;57639;52.410;-1.966;2023-07-13T19:02:15;19.90;62.20
61591;DHT22;57639;52.410;-1.966;2023-07-13T19:05:31;19.90;62.20
61591;DHT22;57639;52.410;-1.966;2023-07-13T19:08:40;19.90;62.20
61591;DHT22;57639;52.410;-1.966;2023-07-13T19:11:47;19.80;62.10
61591;DHT22;57639;52.410;-1.966;2023-07-13T19:14:54;19.80;62.10
61591;DHT22;57639;52.410;-1.966;2023-07-13T19:18:04;19.80;62.10
61591;DHT22;57639;52.410;-1.966;2023-07-13T19:21:27;19.80;62.10
61591;DHT22;57639;52.410;-1.966;2023-07-13T19:24:36;19.80;62.10
61591;DHT22;57639;52.410;-1.966;2023-07-13T19:27:44;19.80;62.10
61591;DHT22;57639;52.410;-1.966;2023-07-13T19:30:57;19.80;62.10
61591;DHT22;57639;52.410;-1.966;2023-07-13T19:34:16;19.80;62.10
61591;DHT22;57639;52.410;-1.966;2023-07-13T19:37:26;19.80;62.10
61591;DHT22;57639;52.410;-1.966;2023-07-13T19:40:33;19.70;62.00
61591;DHT22;57639;52.410;-1.966;2023-07-13T19:43:39;19.80;62.00